Time;durP1;ratioP1;P1;durP2;ratioP2;P2;SDS_P1;SDS_P2;PMS_P1;PMS_P2;Temp;Humidity;BMP_temperature;BMP_pressure;BME280_temperature;BME280_humidity;BME280_pressure;Samples;Min_cycle;Max_cycle;Signal;HPM_P1;HPM_P2
2022/09/26 00:04:43;;;;;;;23.23;17.60;;;;;;;10.86;100.00;95855.59;10331879;28;20729;-73
2022/09/26 00:09:44;;;;;;;17.30;15.50;;;;;;;10.79;100.00;95846.81;10331896;28;20226;-73
2022/09/26 00:14:44;;;;;;;17.38;14.77;;;;;;;10.82;100.00;95847.25;10331724;28;20190;-73
2022/09/26 00:19:44;;;;;;;21.33;16.60;;;;;;;10.92;100.00;95848.78;10331482;28;20255;-73
2022/09/26 00:24:45;;;;;;;19.35;16.63;;;;;;;10.82;100.00;95839.38;10331086;28;20285;-73
2022/09/26 00:29:45;;;;;;;19.15;15.27;;;;;;;10.73;100.00;95847.53;10330946;28;20226;-72
2022/09/26 00:34:45;;;;;;;24.43;21.07;;;;;;;10.73;100.00;95842.28;10330852;28;20202;-72
2022/09/26 00:39:46;;;;;;;23.73;19.30;;;;;;;10.74;100.00;95844.72;10330777;28;20752;-72
2022/09/26 00:44:55;;;;;;;22.15;19.75;;;;;;;10.71;100.00;95840.63;10330309;28;20726;-72
2022/09/26 00:50:04;;;;;;;27.70;21.58;;;;;;;10.75;100.00;95835.88;10306273;28;20587;-72
2022/09/26 00:55:06;;;;;;;31.45;22.15;;;;;;;10.68;100.00;95832.34;10328479;28;20203;-72
2022/09/26 01:00:09;;;;;;;27.25;20.33;;;;;;;10.62;100.00;95831.25;10311417;28;20226;-73
2022/09/26 01:05:12;;;;;;;34.08;22.48;;;;;;;10.59;100.00;95831.59;10312163;28;20190;-72
2022/09/26 01:10:14;;;;;;;28.48;22.15;;;;;;;10.57;100.00;95838.81;10312329;28;20245;-73
2022/09/26 01:15:14;;;;;;;32.25;22.27;;;;;;;10.57;100.00;95832.78;10312046;28;20557;-73
2022/09/26 01:20:21;;;;;;;35.40;23.20;;;;;;;10.53;100.00;95835.75;10311891;28;20186;-72
2022/09/26 01:25:38;;;;;;;32.08;22.67;;;;;;;10.51;100.00;95829.06;10328961;28;20198;-72
2022/09/26 01:30:42;;;;;;;34.25;23.58;;;;;;;10.50;100.00;95823.00;10328246;28;20216;-73
2022/09/26 01:35:55;;;;;;;31.42;21.85;;;;;;;10.49;100.00;95816.16;10311114;28;20233;-73
2022/09/26 01:41:00;;;;;;;35.08;23.08;;;;;;;10.46;100.00;95823.53;10321985;28;20190;-73
2022/09/26 01:46:38;;;;;;;34.78;23.40;;;;;;;10.37;100.00;95821.97;10311772;28;20201;-73
2022/09/26 01:51:46;;;;;;;43.72;24.73;;;;;;;10.24;100.00;95828.59;10311648;28;20765;-73
2022/09/26 01:56:47;;;;;;;44.40;25.05;;;;;;;10.16;100.00;95831.28;10326745;28;20677;-73
2022/09/26 02:01:49;;;;;;;37.90;22.25;;;;;;;10.10;100.00;95835.41;10320732;28;20226;-73
2022/09/26 02:06:56;;;;;;;36.45;22.35;;;;;;;9.96;100.00;95830.94;10326972;28;20204;-73
2022/09/26 02:11:59;;;;;;;32.17;20.65;;;;;;;9.96;100.00;95834.38;10310773;28;20635;-73
2022/09/26 02:17:14;;;;;;;29.40;18.70;;;;;;;9.93;100.00;95842.56;10310867;28;20183;-73
2022/09/26 02:22:14;;;;;;;27.13;17.00;;;;;;;9.89;100.00;95843.91;10309757;28;20186;-73
2022/09/26 02:27:14;;;;;;;23.90;15.67;;;;;;;9.74;100.00;95837.78;10310327;28;20647;-73
2022/09/26 02:32:19;;;;;;;19.67;13.27;;;;;;;9.72;100.00;95840.56;10327294;28;20305;-73
2022/09/26 02:37:20;;;;;;;17.03;11.47;;;;;;;9.53;100.00;95835.78;10326472;28;20214;-73
2022/09/26 02:42:28;;;;;;;13.80;9.67;;;;;;;9.43;100.00;95828.13;10310125;28;20193;-73
2022/09/26 02:47:45;;;;;;;10.60;8.30;;;;;;;9.32;100.00;95831.16;10315533;28;20210;-73
2022/09/26 02:53:07;;;;;;;9.97;8.13;;;;;;;9.34;100.00;95823.94;10317332;28;20218;-73
2022/09/26 02:58:21;;;;;;;10.87;8.40;;;;;;;9.33;100.00;95832.78;10316884;28;20198;-73
2022/09/26 03:03:39;;;;;;;6.80;5.60;;;;;;;9.24;100.00;95832.81;10327033;28;20247;-73
2022/09/26 03:08:44;;;;;;;6.90;5.83;;;;;;;9.18;100.00;95828.25;10336426;28;20562;-74
2022/09/26 03:13:45;;;;;;;9.27;7.10;;;;;;;9.17;100.00;95823.19;10352794;28;20196;-73
2022/09/26 03:18:53;;;;;;;7.67;6.53;;;;;;;9.09;100.00;95816.22;10351655;28;20692;-73
2022/09/26 03:23:55;;;;;;;11.13;7.67;;;;;;;9.06;100.00;95808.72;10335675;28;20244;-73
2022/09/26 03:28:56;;;;;;;10.33;7.83;;;;;;;9.01;100.00;95806.59;10335209;28;20963;-72
2022/09/26 03:33:58;;;;;;;10.77;8.60;;;;;;;8.92;100.00;95802.41;10352217;28;20193;-73
2022/09/26 03:38:58;;;;;;;12.40;8.50;;;;;;;8.92;100.00;95802.41;10352221;28;20565;-73
2022/09/26 03:44:20;;;;;;;12.90;8.83;;;;;;;8.93;100.00;95798.81;10352226;28;20192;-73
2022/09/26 03:49:39;;;;;;;14.60;10.20;;;;;;;8.92;100.00;95810.22;10369285;28;20229;-74
2022/09/26 03:54:40;;;;;;;14.70;10.13;;;;;;;8.93;100.00;95809.25;10351525;28;20212;-73
2022/09/26 03:59:41;;;;;;;16.67;11.40;;;;;;;8.96;100.00;95815.91;10367485;28;20269;-73
2022/09/26 04:04:41;;;;;;;16.73;11.47;;;;;;;8.74;100.00;95810.44;10354323;28;20296;-73
2022/09/26 04:09:43;;;;;;;17.50;11.90;;;;;;;8.84;100.00;95800.63;10354304;28;20308;-73
2022/09/26 04:14:44;;;;;;;13.63;10.10;;;;;;;8.80;100.00;95799.31;10353771;28;20657;-73
2022/09/26 04:19:45;;;;;;;17.70;11.00;;;;;;;8.86;100.00;95787.41;10353861;28;20177;-74
2022/09/26 04:24:46;;;;;;;13.87;10.20;;;;;;;8.80;100.00;95775.81;10371112;28;20197;-73
2022/09/26 04:29:48;;;;;;;15.43;9.10;;;;;;;8.49;100.00;95773.94;10353694;28;20217;-73
2022/09/26 04:34:59;;;;;;;13.67;9.37;;;;;;;8.61;100.00;95769.19;10347156;28;20209;-73
2022/09/26 04:40:00;;;;;;;12.27;9.47;;;;;;;8.64;100.00;95773.28;10353680;28;20197;-73
2022/09/26 04:45:01;;;;;;;14.57;10.57;;;;;;;8.50;100.00;95774.75;10353250;28;20220;-73
2022/09/26 04:50:02;;;;;;;16.43;10.87;;;;;;;8.37;100.00;95776.06;10353148;28;20757;-73
2022/09/26 04:55:04;;;;;;;17.67;9.90;;;;;;;8.47;100.00;95782.91;10352849;28;20580;-73
2022/09/26 05:00:06;;;;;;;14.37;10.43;;;;;;;8.33;100.00;95779.16;10352030;28;20321;-73
2022/09/26 05:05:08;;;;;;;17.57;10.00;;;;;;;8.42;100.00;95774.75;10352485;28;20193;-74
2022/09/26 05:10:11;;;;;;;14.63;9.63;;;;;;;8.31;100.00;95779.31;10352076;28;20224;-74
2022/09/26 05:15:20;;;;;;;17.03;10.60;;;;;;;8.30;100.00;95788.16;10337646;28;20272;-73
2022/09/26 05:20:22;;;;;;;19.37;11.13;;;;;;;8.13;100.00;95776.09;10332567;28;20185;-73
2022/09/26 05:30:53;;;;;;;20.53;11.90;;;;;;;8.04;100.00;95775.28;10338501;28;20371;-73
2022/09/26 05:35:54;;;;;;;14.13;10.60;;;;;;;8.22;100.00;95785.53;10351550;28;20240;-74
2022/09/26 05:40:55;;;;;;;14.60;9.97;;;;;;;8.18;100.00;95779.84;10351550;28;20223;-73
2022/09/26 05:46:06;;;;;;;17.30;10.47;;;;;;;8.14;100.00;95783.75;10361352;28;20268;-74
2022/09/26 05:51:14;;;;;;;18.77;12.30;;;;;;;8.18;100.00;95785.06;10335928;28;20243;-74
2022/09/26 05:56:18;;;;;;;19.90;11.30;;;;;;;8.19;100.00;95785.88;10335472;28;20189;-74
2022/09/26 06:01:36;;;;;;;16.63;10.97;;;;;;;8.18;100.00;95786.88;10369190;28;20323;-74
2022/09/26 06:06:50;;;;;;;19.27;12.23;;;;;;;8.20;100.00;95787.50;10336345;28;20799;-73
2022/09/26 06:11:50;;;;;;;21.20;11.80;;;;;;;8.37;100.00;95788.28;10351117;28;20252;-73
2022/09/26 06:16:51;;;;;;;15.57;11.63;;;;;;;8.38;100.00;95792.53;10368536;28;20272;-74
2022/09/26 06:21:52;;;;;;;17.93;12.40;;;;;;;8.49;100.00;95792.22;10355874;28;20202;-74
2022/09/26 06:26:53;;;;;;;23.40;12.27;;;;;;;8.48;100.00;95782.75;10358404;28;20587;-74
2022/09/26 06:31:53;;;;;;;22.37;12.80;;;;;;;8.51;100.00;95779.81;10358481;28;20278;-73
2022/09/26 06:37:12;;;;;;;16.07;10.90;;;;;;;8.56;100.00;95774.91;10376207;28;20221;-74
2022/09/26 06:42:13;;;;;;;13.63;10.10;;;;;;;8.60;100.00;95771.97;10358229;28;20189;-74
2022/09/26 06:47:46;;;;;;;18.27;9.13;;;;;;;8.63;100.00;95761.19;10358172;28;20189;-74
2022/09/26 06:53:03;;;;;;;14.33;9.63;;;;;;;8.80;100.00;95761.97;10357343;28;20221;-74
2022/09/26 06:58:04;;;;;;;11.73;8.70;;;;;;;8.67;100.00;95752.84;10357564;28;20185;-74
2022/09/26 07:03:14;;;;;;;12.13;8.47;;;;;;;8.78;100.00;95740.44;10341819;28;20236;-74
2022/09/26 07:08:24;;;;;;;18.13;10.43;;;;;;;8.78;100.00;95743.84;10389896;28;20188;-74
2022/09/26 07:13:28;;;;;;;17.40;9.03;;;;;;;9.00;100.00;95744.88;10378818;28;20192;-74
2022/09/26 07:18:28;;;;;;;15.07;9.70;;;;;;;9.16;100.00;95744.00;10372216;28;20668;-74
2022/09/26 07:23:49;;;;;;;14.70;9.60;;;;;;;9.37;100.00;95739.94;10355844;28;20276;-74
2022/09/26 07:28:52;;;;;;;18.00;10.60;;;;;;;9.75;100.00;95737.41;10354693;28;20209;-75
2022/09/26 07:33:53;;;;;;;13.90;10.67;;;;;;;9.86;100.00;95718.66;10355237;28;20268;-73
2022/09/26 07:38:53;;;;;;;10.13;8.80;;;;;;;9.97;100.00;95715.66;10354395;28;20259;-73
2022/09/26 07:43:53;;;;;;;16.20;10.73;;;;;;;10.04;100.00;95709.72;10372312;28;20277;-73
2022/09/26 07:54:20;;;;;;;14.27;10.70;;;;;;;10.45;100.00;95676.09;10371602;28;20265;-73
2022/09/26 07:59:34;;;;;;;12.73;11.02;;;;;;;11.05;100.00;95670.75;10371036;28;20201;-73
2022/09/26 08:04:57;;;;;;;13.90;9.20;;;;;;;11.91;100.00;95662.88;10370551;28;20197;-74
2022/09/26 08:10:01;;;;;;;10.52;7.35;;;;;;;12.43;100.00;95649.50;10352127;28;20276;-74
2022/09/26 08:15:20;;;;;;;10.15;6.03;;;;;;;12.42;100.00;95635.56;10369321;28;20201;-74
2022/09/26 08:20:21;;;;;;;7.72;5.05;;;;;;;12.02;100.00;95632.69;10370549;28;20181;-73
2022/09/26 08:25:22;;;;;;;8.15;4.72;;;;;;;11.84;100.00;95638.41;10353092;28;20657;-73
2022/09/26 08:30:30;;;;;;;10.75;3.85;;;;;;;13.01;100.00;95635.97;10370072;28;20228;-73
2022/09/26 08:35:37;;;;;;;7.07;4.32;;;;;;;11.99;100.00;95651.47;10370250;28;20213;-73
2022/09/26 08:41:33;;;;;;;8.10;4.03;;;;;;;11.15;100.00;95650.31;10370201;28;20654;-72
2022/09/26 08:47:01;;;;;;;5.03;3.28;;;;;;;12.28;100.00;95646.97;10337600;28;20200;-72
2022/09/26 08:52:45;;;;;;;9.40;3.10;;;;;;;12.49;100.00;95631.13;10352038;28;20243;-72
2022/09/26 08:57:49;;;;;;;5.07;2.67;;;;;;;14.14;100.00;95592.31;10274969;28;20209;-72
2022/09/26 09:03:04;;;;;;;4.85;2.53;;;;;;;15.40;91.78;95575.06;10343455;28;20234;-73
2022/09/26 09:08:11;;;;;;;5.60;2.80;;;;;;;13.99;88.73;95584.63;10326962;28;20711;-72
2022/09/26 09:13:36;;;;;;;5.70;2.42;;;;;;;12.74;97.07;95614.03;10327757;28;20198;-72
2022/09/26 09:19:15;;;;;;;4.80;2.67;;;;;;;12.85;94.01;95593.25;10325953;28;20241;-73
2022/09/26 09:25:03;;;;;;;7.13;2.50;;;;;;;13.97;86.35;95549.81;10343084;28;20194;-72
2022/09/26 09:30:16;;;;;;;5.88;2.33;;;;;;;13.18;83.94;95536.47;10326265;28;20218;-73
2022/09/26 09:35:53;;;;;;;5.63;2.55;;;;;;;12.87;84.23;95537.06;10312863;28;20644;-73
2022/09/26 09:41:12;;;;;;;4.80;2.28;;;;;;;14.12;82.34;95526.66;10294932;28;20210;-73
2022/09/26 09:46:25;;;;;;;7.40;2.10;;;;;;;13.46;80.10;95491.59;10293795;28;20190;-72
2022/09/26 09:51:51;;;;;;;3.30;1.80;;;;;;;14.15;83.55;95538.59;10310592;28;20635;-73
2022/09/26 09:57:48;;;;;;;8.85;1.92;;;;;;;16.32;76.26;95481.13;10330734;28;20185;-73
2022/09/26 10:02:52;;;;;;;2.63;1.30;;;;;;;16.77;68.84;95410.09;10285310;28;20230;-73
2022/09/26 10:07:57;;;;;;;7.90;1.67;;;;;;;15.22;71.97;95443.06;10350237;28;20190;-72
2022/09/26 10:13:16;;;;;;;4.53;1.88;;;;;;;13.16;75.84;95457.78;10348369;28;20304;-72
2022/09/26 10:18:55;;;;;;;3.95;1.60;;;;;;;15.39;72.37;95440.69;10335080;28;20197;-72
2022/09/26 10:23:55;;;;;;;5.55;1.70;;;;;;;15.63;70.69;95421.34;10334873;28;20209;-72
2022/09/26 10:29:23;;;;;;;5.15;1.55;;;;;;;14.40;71.84;95431.47;10349152;28;20224;-73
2022/09/26 10:34:26;;;;;;;6.28;2.00;;;;;;;13.18;74.96;95463.69;10332957;28;20784;-74
2022/09/26 10:44:49;;;;;;;2.92;1.30;;;;;;;17.99;64.94;95376.00;10316459;28;20193;-73
2022/09/26 10:50:09;;;;;;;7.65;1.30;;;;;;;14.85;65.57;95358.59;10333808;28;20280;-73
2022/09/26 10:55:31;;;;;;;1.88;1.00;;;;;;;16.99;65.10;95385.78;10333619;28;20253;-73
2022/09/26 11:00:32;;;;;;;4.05;1.00;;;;;;;15.33;63.64;95342.91;10348359;28;20737;-72
2022/09/26 11:11:01;;;;;;;5.40;1.02;;;;;;;14.31;71.82;95453.84;10315531;28;20744;-74
2022/09/26 11:16:13;;;;;;;3.15;1.15;;;;;;;16.71;63.72;95352.84;10347432;28;20708;-73
2022/09/26 11:21:41;;;;;;;3.53;1.15;;;;;;;16.51;60.91;95291.56;10351004;28;20683;-73
2022/09/26 11:27:20;;;;;;;4.10;0.93;;;;;;;17.93;57.04;95257.69;10337715;28;20197;-73
2022/09/26 11:32:41;;;;;;;2.60;1.00;;;;;;;16.75;58.29;95258.81;10355399;28;20304;-73
2022/09/26 11:38:34;;;;;;;2.25;0.98;;;;;;;15.56;60.05;95264.88;10357768;28;20213;-72
2022/09/26 11:43:52;;;;;;;4.85;1.00;;;;;;;14.33;66.94;95370.13;10338931;28;20196;-72
2022/09/26 11:49:29;;;;;;;5.72;1.00;;;;;;;15.10;64.86;95346.19;10357727;28;20225;-73
2022/09/26 11:55:07;;;;;;;2.40;1.02;;;;;;;14.97;62.42;95286.47;10371256;28;20197;-73
2022/09/26 12:00:14;;;;;;;3.53;1.00;;;;;;;14.41;65.79;95330.34;10371543;28;20713;-74
2022/09/26 12:05:28;;;;;;;2.13;1.02;;;;;;;14.91;64.89;95313.72;10354299;28;20197;-73
2022/09/26 12:10:51;;;;;;;1.20;0.95;;;;;;;15.83;59.48;95217.00;10353605;28;20663;-73
2022/09/26 12:16:24;;;;;;;1.58;1.00;;;;;;;16.91;59.21;95241.44;10399091;28;20657;-73
2022/09/26 12:21:35;;;;;;;3.92;1.00;;;;;;;16.67;56.81;95182.44;10393959;28;20185;-73
2022/09/26 12:26:43;;;;;;;2.08;1.20;;;;;;;16.66;56.80;95201.19;10393848;28;20203;-73
2022/09/26 12:32:13;;;;;;;1.45;0.50;;;;;;;17.17;48.05;95032.13;10393431;28;20223;-73
2022/09/26 12:37:41;;;;;;;1.05;0.75;;;;;;;18.25;48.97;95079.53;10393458;28;20217;-72
2022/09/26 12:43:03;;;;;;;0.68;0.68;;;;;;;16.11;52.22;95094.03;10410519;28;20288;-73
2022/09/26 12:48:16;;;;;;;1.50;0.82;;;;;;;17.13;51.72;95105.84;10392999;28;20209;-72
2022/09/26 12:53:34;;;;;;;8.45;1.45;;;;;;;15.37;54.41;95121.59;10409992;28;20227;-73
2022/09/26 12:59:06;;;;;;;1.50;1.10;;;;;;;16.59;51.93;95101.66;10410250;28;20203;-72
2022/09/26 13:04:24;;;;;;;3.63;0.82;;;;;;;16.82;51.99;95107.13;10355759;28;20236;-73
2022/09/26 13:09:50;;;;;;;1.55;0.90;;;;;;;15.87;55.08;95137.09;10368800;28;20314;-73
2022/09/26 13:15:13;;;;;;;1.40;0.90;;;;;;;16.96;51.65;95089.94;10350901;28;20228;-72
2022/09/26 13:20:26;;;;;;;0.93;0.63;;;;;;;15.94;53.95;95107.97;10351992;28;20224;-72
2022/09/26 13:25:58;;;;;;;0.80;0.70;;;;;;;15.65;55.29;95122.81;10350113;28;20181;-72
2022/09/26 13:31:02;;;;;;;1.10;0.90;;;;;;;14.87;56.49;95135.06;10348821;28;20713;-72
2022/09/26 13:36:03;;;;;;;0.85;0.82;;;;;;;14.27;58.14;95153.16;10367769;28;20623;-73
2022/09/26 13:41:25;;;;;;;2.60;0.93;;;;;;;14.26;57.94;95145.47;10350495;28;20193;-73
2022/09/26 13:46:51;;;;;;;2.95;0.85;;;;;;;14.59;58.13;95149.56;10346711;28;20192;-73
2022/09/26 13:52:11;;;;;;;1.38;0.80;;;;;;;15.24;57.04;95121.81;10366713;28;20225;-73
2022/09/26 13:57:34;;;;;;;9.27;1.05;;;;;;;15.60;56.31;95112.94;10366111;28;20649;-72
2022/09/26 14:02:34;;;;;;;3.88;0.85;;;;;;;15.69;55.42;95071.16;10365882;28;20233;-73
2022/09/26 14:13:04;;;;;;;1.70;1.00;;;;;;;14.49;62.51;95196.72;10324980;28;20592;-73
2022/09/26 14:18:41;;;;;;;4.30;1.20;;;;;;;13.92;63.08;95195.00;10325253;28;20646;-73
2022/09/26 14:23:44;;;;;;;1.13;0.90;;;;;;;13.81;63.78;95188.59;10302845;28;20201;-73
2022/09/26 14:28:50;;;;;;;1.95;1.00;;;;;;;13.97;65.24;95212.78;10326019;28;20234;-73
2022/09/26 14:34:14;;;;;;;2.75;0.90;;;;;;;14.15;66.16;95233.91;10325621;28;20942;-72
2022/09/26 14:39:24;;;;;;;2.97;1.60;;;;;;;13.57;65.87;95200.72;10308656;28;20209;-73
2022/09/26 14:44:27;;;;;;;6.45;3.83;;;;;;;13.66;66.93;95222.31;10313773;28;20205;-73
2022/09/26 14:49:27;;;;;;;9.35;3.83;;;;;;;13.95;65.47;95188.50;10331898;28;20214;-73
2022/09/26 14:54:37;;;;;;;5.03;2.30;;;;;;;13.81;66.74;95199.13;10331538;28;20682;-73
2022/09/26 14:59:39;;;;;;;2.40;1.67;;;;;;;14.08;66.42;95194.44;10310418;28;20229;-72
2022/09/26 15:04:41;;;;;;;3.88;1.50;;;;;;;13.59;68.77;95222.34;10332298;28;20196;-71
2022/09/26 15:09:46;;;;;;;2.42;1.33;;;;;;;13.97;69.06;95232.03;10315068;28;20233;-72
2022/09/26 15:14:53;;;;;;;2.53;1.13;;;;;;;13.83;67.97;95198.94;10299222;28;20585;-72
2022/09/26 15:19:55;;;;;;;2.47;1.27;;;;;;;13.44;70.36;95214.75;10337964;28;20197;-72
2022/09/26 15:25:24;;;;;;;1.40;1.13;;;;;;;13.66;69.97;95207.34;10335086;28;20618;-73
2022/09/26 15:30:32;;;;;;;3.80;1.60;;;;;;;13.37;72.27;95237.69;10326128;28;20214;-73
2022/09/26 15:35:32;;;;;;;1.92;1.83;;;;;;;13.62;68.81;95174.56;10311526;28;20289;-73
2022/09/26 15:40:33;;;;;;;3.63;1.25;;;;;;;13.73;69.95;95200.19;10329209;28;20198;-73
2022/09/26 15:45:45;;;;;;;1.92;1.20;;;;;;;13.50;69.14;95176.28;10331436;28;20193;-73
2022/09/26 15:51:01;;;;;;;3.13;1.20;;;;;;;13.27;67.53;95146.03;10331461;28;20222;-73
2022/09/26 15:56:08;;;;;;;28.98;14.60;;;;;;;12.81;69.68;95168.13;10330972;28;20197;-73
2022/09/26 16:01:14;;;;;;;26.83;15.02;;;;;;;12.67;70.19;95170.00;10331811;28;20287;-73
2022/09/26 16:06:21;;;;;;;3.00;2.15;;;;;;;12.44;71.43;95179.13;10332554;28;20252;-73
2022/09/26 16:11:21;;;;;;;5.75;2.03;;;;;;;12.47;71.12;95176.09;10330670;28;20221;-73
2022/09/26 16:16:30;;;;;;;3.97;1.75;;;;;;;12.56;71.08;95183.78;10329897;28;20605;-73
2022/09/26 16:21:35;;;;;;;3.08;1.50;;;;;;;12.44;71.79;95189.66;10313133;28;20206;-72
2022/09/26 16:26:35;;;;;;;3.13;2.28;;;;;;;12.42;72.30;95190.84;10310346;28;20586;-74
2022/09/26 16:31:43;;;;;;;3.80;3.13;;;;;;;12.15;73.54;95196.16;10329751;28;20316;-73
2022/09/26 16:36:44;;;;;;;6.45;4.90;;;;;;;11.66;76.43;95229.63;10329695;28;20253;-73
2022/09/26 16:41:53;;;;;;;5.32;3.30;;;;;;;11.67;77.29;95227.81;10329879;28;20185;-72
2022/09/26 16:46:53;;;;;;;4.95;2.10;;;;;;;11.13;79.72;95250.47;10328685;28;20198;-73
2022/09/26 16:52:19;;;;;;;5.60;1.67;;;;;;;10.79;81.85;95258.19;10329357;28;20229;-72
2022/09/26 16:57:22;;;;;;;4.63;2.42;;;;;;;10.53;86.72;95271.94;10327957;28;20549;-73
2022/09/26 17:02:23;;;;;;;13.05;10.23;;;;;;;10.55;88.76;95251.63;10335109;28;20225;-73
2022/09/26 17:07:23;;;;;;;12.43;7.07;;;;;;;10.29;90.83;95258.25;10369081;28;20193;-73
2022/09/26 17:12:24;;;;;;;3.33;2.28;;;;;;;10.11;94.31;95265.78;10369664;28;20220;-72
2022/09/26 17:17:24;;;;;;;6.70;3.47;;;;;;;9.84;97.20;95262.91;10368906;28;20225;-73
2022/09/26 17:22:25;;;;;;;4.00;2.67;;;;;;;9.40;100.00;95271.75;10369430;28;20220;-72
2022/09/26 17:27:30;;;;;;;7.07;2.70;;;;;;;9.29;100.00;95273.03;10368838;28;20189;-73
2022/09/26 17:32:34;;;;;;;5.53;1.93;;;;;;;9.28;100.00;95263.59;10351261;28;20244;-72
2022/09/26 17:37:34;;;;;;;6.13;2.67;;;;;;;9.11;100.00;95270.81;10348704;28;20216;-73
2022/09/26 17:42:35;;;;;;;4.23;2.60;;;;;;;8.91;100.00;95266.16;10346562;28;20975;-73
2022/09/26 17:47:35;;;;;;;8.53;4.43;;;;;;;8.78;100.00;95280.84;10369127;28;20623;-72
2022/09/26 17:52:37;;;;;;;6.17;3.80;;;;;;;8.61;100.00;95273.19;10351277;28;20753;-72
2022/09/26 17:57:37;;;;;;;9.57;3.70;;;;;;;8.47;100.00;95276.59;10368597;28;20193;-73
2022/09/26 18:02:42;;;;;;;11.67;4.30;;;;;;;8.38;100.00;95268.81;10342626;28;20238;-72
2022/09/26 18:07:54;;;;;;;7.73;4.50;;;;;;;8.20;100.00;95271.75;10328408;28;20194;-72
2022/09/26 18:13:07;;;;;;;5.43;3.20;;;;;;;8.21;100.00;95262.97;10311737;28;20245;-72
2022/09/26 18:18:13;;;;;;;6.33;3.13;;;;;;;8.21;100.00;95249.91;10315687;28;20194;-72
2022/09/26 18:23:54;;;;;;;7.17;3.60;;;;;;;8.12;100.00;95253.59;10318062;28;20281;-72
2022/09/26 18:28:57;;;;;;;7.93;3.33;;;;;;;7.93;100.00;95254.91;10333277;28;20220;-72
2022/09/26 18:33:58;;;;;;;3.50;2.37;;;;;;;8.02;100.00;95251.25;10334079;28;20201;-73
2022/09/26 18:38:59;;;;;;;4.43;3.10;;;;;;;7.95;100.00;95237.28;10332252;28;20210;-72
2022/09/26 18:43:59;;;;;;;4.47;2.77;;;;;;;7.78;100.00;95236.63;10332385;28;20186;-73
2022/09/26 18:49:05;;;;;;;5.30;3.00;;;;;;;7.82;100.00;95230.03;10312607;28;20255;-72
2022/09/26 18:54:10;;;;;;;3.77;2.50;;;;;;;7.90;100.00;95226.59;10331806;28;20213;-72
2022/09/26 18:59:11;;;;;;;6.67;2.63;;;;;;;7.89;100.00;95216.28;10314113;28;20218;-73
2022/09/26 19:04:20;;;;;;;6.47;3.00;;;;;;;8.07;100.00;95213.38;10370266;28;20323;-72
2022/09/26 19:09:21;;;;;;;2.53;2.23;;;;;;;8.22;100.00;95206.38;10371456;28;20225;-72
2022/09/26 19:14:26;;;;;;;5.00;2.57;;;;;;;8.42;100.00;95201.41;10354165;28;20189;-72
2022/09/26 19:19:31;;;;;;;2.80;1.80;;;;;;;8.48;100.00;95190.28;10371366;28;20188;-72
2022/09/26 19:24:35;;;;;;;2.93;2.23;;;;;;;8.61;100.00;95194.09;10371026;28;20193;-72
2022/09/26 19:30:00;;;;;;;5.40;2.87;;;;;;;8.75;100.00;95193.25;10352865;28;20271;-74
2022/09/26 19:35:05;;;;;;;5.87;2.93;;;;;;;8.70;100.00;95187.78;10370858;28;20224;-73
2022/09/26 19:40:12;;;;;;;9.57;2.97;;;;;;;8.68;100.00;95179.28;10370288;28;20189;-73
2022/09/26 19:45:13;;;;;;;4.00;2.33;;;;;;;8.70;100.00;95175.53;10370465;28;20197;-73
2022/09/26 19:50:17;;;;;;;3.20;2.30;;;;;;;8.71;100.00;95174.53;10370339;28;20275;-73
2022/09/26 19:55:23;;;;;;;7.00;2.53;;;;;;;8.68;100.00;95159.25;10369770;28;20699;-73
2022/09/26 20:00:25;;;;;;;3.47;2.27;;;;;;;8.78;100.00;95145.09;10352119;28;20232;-72
2022/09/26 20:05:25;;;;;;;7.00;2.17;;;;;;;8.79;100.00;95147.50;10369394;28;20213;-74
2022/09/26 20:10:25;;;;;;;7.13;2.27;;;;;;;8.77;100.00;95141.66;10369597;28;20272;-73
2022/09/26 20:15:26;;;;;;;7.20;2.57;;;;;;;8.75;100.00;95138.41;10368645;28;20201;-73
2022/09/26 20:20:26;;;;;;;5.07;2.33;;;;;;;8.74;100.00;95135.00;10368479;28;20200;-73
2022/09/26 20:25:29;;;;;;;5.27;3.20;;;;;;;8.80;100.00;95136.06;10368911;28;20197;-73
2022/09/26 20:35:52;;;;;;;4.80;2.50;;;;;;;8.84;100.00;95121.66;10368170;28;20548;-73
2022/09/26 20:40:59;;;;;;;4.03;2.23;;;;;;;8.85;100.00;95122.44;10366924;28;20196;-72
2022/09/26 20:46:08;;;;;;;4.83;2.27;;;;;;;8.87;100.00;95118.66;10336187;28;20198;-73
2022/09/26 20:51:16;;;;;;;5.07;2.37;;;;;;;8.81;100.00;95126.44;10352608;28;20252;-72
2022/09/26 20:56:19;;;;;;;6.17;2.67;;;;;;;8.73;100.00;95115.09;10370307;28;20223;-73
2022/09/26 21:01:21;;;;;;;3.70;2.03;;;;;;;8.81;100.00;95116.78;10351824;28;20706;-73
2022/09/26 21:06:25;;;;;;;10.17;2.30;;;;;;;8.79;100.00;95105.75;10352251;28;20197;-73
2022/09/26 21:11:26;;;;;;;6.67;2.33;;;;;;;8.81;100.00;95100.31;10352464;28;20228;-73
2022/09/26 21:16:26;;;;;;;6.40;2.60;;;;;;;8.96;100.00;95095.03;10369407;28;20540;-73
2022/09/26 21:21:29;;;;;;;7.47;2.40;;;;;;;9.02;100.00;95089.88;10369940;28;20189;-72
2022/09/26 21:26:52;;;;;;;3.90;2.50;;;;;;;8.86;100.00;95097.97;10351690;28;20699;-72
2022/09/26 21:31:53;;;;;;;5.83;2.40;;;;;;;9.06;100.00;95082.47;10369708;28;20270;-72
2022/09/26 21:36:55;;;;;;;3.97;2.27;;;;;;;9.10;100.00;95073.28;10368551;28;20221;-73
2022/09/26 21:41:57;;;;;;;2.77;2.23;;;;;;;9.25;100.00;95074.00;10368974;28;20217;-72
2022/09/26 21:46:58;;;;;;;5.37;2.17;;;;;;;9.23;100.00;95062.13;10351175;28;20189;-72
2022/09/26 21:52:47;;;;;;;4.53;2.37;;;;;;;9.26;100.00;95046.91;10368792;28;20213;-72
2022/09/26 21:57:48;;;;;;;6.60;2.13;;;;;;;9.28;100.00;95041.47;10364223;28;20268;-72
2022/09/26 22:02:48;;;;;;;5.93;2.17;;;;;;;9.51;100.00;95032.56;10348061;28;20221;-72
2022/09/26 22:07:48;;;;;;;3.87;2.30;;;;;;;9.51;100.00;95022.09;10366514;28;20197;-72
2022/09/26 22:12:51;;;;;;;6.33;2.30;;;;;;;9.45;100.00;95021.88;10366451;28;20303;-72
2022/09/26 22:17:51;;;;;;;4.00;2.13;;;;;;;9.47;100.00;95011.25;10367669;28;20680;-73
2022/09/26 22:22:52;;;;;;;2.10;1.93;;;;;;;9.48;100.00;95004.19;10368606;28;20186;-73
2022/09/26 22:27:52;;;;;;;3.90;2.30;;;;;;;9.41;100.00;94998.94;10368191;28;20224;-73
2022/09/26 22:32:53;;;;;;;2.73;2.17;;;;;;;9.45;100.00;94984.50;10368644;28;20213;-72
2022/09/26 22:37:53;;;;;;;7.27;1.97;;;;;;;9.53;100.00;94978.31;10368056;28;20293;-73
2022/09/26 22:42:53;;;;;;;7.77;2.13;;;;;;;9.53;100.00;94963.41;10368127;28;20193;-72
2022/09/26 22:47:55;;;;;;;5.47;1.70;;;;;;;9.57;100.00;94962.03;10368015;28;20203;-72
2022/09/26 22:52:57;;;;;;;3.23;1.50;;;;;;;9.60;100.00;94959.03;10367758;28;20317;-72
2022/09/26 22:57:58;;;;;;;2.80;1.50;;;;;;;9.57;100.00;94948.97;10367937;28;20247;-72
2022/09/26 23:02:58;;;;;;;1.80;1.63;;;;;;;9.54;100.00;94938.06;10370569;28;20295;-72
2022/09/26 23:07:58;;;;;;;2.87;1.60;;;;;;;9.53;100.00;94932.06;10374913;28;20189;-73
2022/09/26 23:12:59;;;;;;;2.60;1.60;;;;;;;9.54;100.00;94922.38;10375004;28;20213;-72
2022/09/26 23:17:59;;;;;;;3.50;2.00;;;;;;;9.51;100.00;94900.09;10373990;28;20197;-73
2022/09/26 23:22:59;;;;;;;3.70;1.80;;;;;;;9.49;100.00;94896.03;10374411;28;20201;-72
2022/09/26 23:28:01;;;;;;;1.97;1.80;;;;;;;9.45;100.00;94888.59;10373803;28;20246;-72
2022/09/26 23:33:01;;;;;;;2.83;1.60;;;;;;;9.57;100.00;94896.69;10374096;28;20626;-72
2022/09/26 23:38:02;;;;;;;2.03;1.60;;;;;;;9.59;100.00;94893.88;10372945;28;20213;-72
2022/09/26 23:43:03;;;;;;;1.70;1.57;;;;;;;9.66;100.00;94878.22;10373492;28;20181;-72
2022/09/26 23:48:03;;;;;;;1.70;1.60;;;;;;;9.58;100.00;94879.97;10373448;28;20190;-73
2022/09/26 23:53:04;;;;;;;2.17;1.20;;;;;;;9.63;100.00;94875.00;10355284;28;20312;-72
2022/09/26 23:58:04;;;;;;;1.33;1.23;;;;;;;9.61;100.00;94870.94;10373032;28;20197;-73
